Bay City, TX

6:55 PM CDT on August 31, 2015 (GMT -0500)
Bay City | | Change Station
CLOSE
Current Station
Airport
Location: Bay City,
Elevation: 46 ft
Nearby Weather Stations

Elev 46 ft 28.97 °N, 95.86 °W | Updated 20 minutes ago

Partly Cloudy
Partly Cloudy
82 °F
Feels Like 87 °F
N
12
Wind Variable Wind from East

Today
High -- | Low -- °F
--% Chance of Precip.
Yesterday
High -- | Low -- °F
Precip. -- in
7:01 AM 7:46 PM
Waning Gibbous, 93% visible
Pressure 29.98 in
Visibility 10.0 miles
Clouds Clear
Heat Index 87 °F
Dew Point 74 °F
Humidity 77%
Rainfall 2.36 in
Snow Depth Not available.
UV 1 out of 12
Pollen 6.70 out of 12
Air Quality Not available.
Flu Activity Not available.
METAR KBYY 312335Z AUTO 10010KT 10SM CLR 27/23 A2998 RMK AO2 T02760232
Pressure 29.98 in
Visibility 10.0 miles
Clouds Clear
Heat Index 87 °F
Dew Point 74 °F
Humidity 77%
Rainfall 2.36 in
Snow Depth Not available.
UV 1 out of 12
Pollen 6.70 out of 12
Air Quality Not available.
Flu Activity Not available.
METAR KBYY 312335Z AUTO 10010KT 10SM CLR 27/23 A2998 RMK AO2 T02760232

10-Day Weather Forecast

×

Almanac

Astronomy

Aug. 31, 2015 Rise Set
Actual Time
Civil Twilight
Nautical Twilight
Astronomical Twilight
Moon
Length of Visible Light
Length of Day
Tomorrow will be .
, % of the Moon is Illuminated

Today's Extremes

State Highs State Lows

Community

WunderPhotos

Upload Photos

1,851,395 photos uploaded!

WunderBlogs® & News

Nearby

Air Quality

  Air Quality AQ Index Pollutant
Not available.

Snow Depth

Station Depth Elevation

Earthquake Activity

City Distance Mag. Time & Date
Minimum magnitude displayed is 2.5.

Coastal Water Temperatures

Place Temperature

Stations

Nearby Weather Stations

Station Location Temp. Windchill Dew Point Humidity Wind Precip. Elev Updated Type